To NAV CANADA Home Page Login to a new session Search on AWWS site Feedback and Comments Disclaimer Vers la page française équivalente Tips FAQ What's new on the site To the Forecasts and Observations / NOTAM section To "File a Flight Plan" website Publications and other links Update of the User's profile FIC Telephone Numbers My Weather Data Folder Route Weather Data Regional Weather Data Local Weather Data To the Forecasts and Observations / NOTAM section
Request Generated 05/30/2015 at 14:07:32 UTC . Weather information available at that time is displayed.

METAR/TAF

MONT-JOLI/QC    

METAR CYYY 301400Z 23010G21KT 190V260 15SM SCT150 OVC220 23/14 A2983
RMK AC3CI5 SLP102 DENSITY ALT 1200FT=
METAR CYYY 301300Z 31006KT 15SM FEW150 BKN230 14/09 A2987 RMK AC2CI5
SLP115=
METAR CYYY 301200Z 33011G18KT 220V340 15SM FEW150 OVC230 13/07 A2990
RMK AC2CI6 SLP126=

TAF CYYY 301340Z 3014/3102 31006KT P6SM FEW150 BKN240
BECMG 3014/3016 21012G22KT
FM301800 22020G30KT P6SM BKN050 OVC120 TEMPO 3018/3021 5SM -SHRA
BR BKN020
BECMG 3018/3020 25015G25KT
FM302100 26012G22KT P6SM -SHRA BKN025 TEMPO 3021/3102 3SM -SHRA
BR BKN008 OVC020
BECMG 3100/3102 28010KT
RMK NXT FCST BY 302000Z=
Your time UTC time
Weather data provided by Environment Canada and NAV CANADA